<?xml version="1.0" encoding="utf-8"?>
<gpx xmlns:xsi="http://www.w3.org/2001/XMLSchema-instance" xmlns:xsd="http://www.w3.org/2001/XMLSchema" version="1.1" creator="Shapelink.com" xmlns="http://www.topografix.com/GPX/1/1" xmlns:gpxtpx="http://www.garmin.com/xmlschemas/TrackPointExtension/v1">
  <metadata>
    <name>Övrigt 2.74 km, 2019-05-19</name>
    <desc></desc>
    <author><name>Marian Moron</name></author> 
    <time>2019-05-19T10:22:06Z</time>
  </metadata>
  <trk>
    <name>Övrigt 2.74 km, 2019-05-19</name>
    <trkseg>
      <trkpt lat="51.208366532779" lon="4.405336622327">
        <ele>0</ele>
        <time>2019-05-19T10:22:06Z</time>
      </trkpt>
      <trkpt lat="51.208512126382" lon="4.405242325952">
        <ele>0</ele>
        <time>2019-05-19T10:22:16Z</time>
      </trkpt>
      <trkpt lat="51.208538445548" lon="4.405234866061">
        <ele>0.8</ele>
        <time>2019-05-19T10:22:24Z</time>
      </trkpt>
      <trkpt lat="51.208858717947" lon="4.404894058007">
        <ele>7.2</ele>
        <time>2019-05-19T10:22:48Z</time>
      </trkpt>
      <trkpt lat="51.209024679567" lon="4.404733460803">
        <ele>5.8</ele>
        <time>2019-05-19T10:22:57Z</time>
      </trkpt>
      <trkpt lat="51.209318548981" lon="4.404668417259">
        <ele>11.6</ele>
        <time>2019-05-19T10:23:18Z</time>
      </trkpt>
      <trkpt lat="51.209614932965" lon="4.404272037208">
        <ele>23</ele>
        <time>2019-05-19T10:23:40Z</time>
      </trkpt>
      <trkpt lat="51.209630607118" lon="4.404263990584">
        <ele>24.2</ele>
        <time>2019-05-19T10:23:46Z</time>
      </trkpt>
      <trkpt lat="51.209633876059" lon="4.404274048864">
        <ele>25.2</ele>
        <time>2019-05-19T10:23:50Z</time>
      </trkpt>
      <trkpt lat="51.209667822754" lon="4.40429785346">
        <ele>27.2</ele>
        <time>2019-05-19T10:23:57Z</time>
      </trkpt>
      <trkpt lat="51.210033525051" lon="4.404779896529">
        <ele>32.8</ele>
        <time>2019-05-19T10:24:32Z</time>
      </trkpt>
      <trkpt lat="51.210045678806" lon="4.404809568455">
        <ele>32.8</ele>
        <time>2019-05-19T10:24:33Z</time>
      </trkpt>
      <trkpt lat="51.210474077715" lon="4.405084243318">
        <ele>37.6</ele>
        <time>2019-05-19T10:24:52Z</time>
      </trkpt>
      <trkpt lat="51.210821339832" lon="4.405562263075">
        <ele>42.2</ele>
        <time>2019-05-19T10:25:22Z</time>
      </trkpt>
      <trkpt lat="51.211222413747" lon="4.405834674825">
        <ele>46.2</ele>
        <time>2019-05-19T10:25:41Z</time>
      </trkpt>
      <trkpt lat="51.211263485057" lon="4.406209010479">
        <ele>50.4</ele>
        <time>2019-05-19T10:26:09Z</time>
      </trkpt>
      <trkpt lat="51.211227107611" lon="4.406270701263">
        <ele>51</ele>
        <time>2019-05-19T10:26:12Z</time>
      </trkpt>
      <trkpt lat="51.210743807257" lon="4.406760874775">
        <ele>58.2</ele>
        <time>2019-05-19T10:26:21Z</time>
      </trkpt>
      <trkpt lat="51.210683876672" lon="4.407001267667">
        <ele>63.8</ele>
        <time>2019-05-19T10:26:38Z</time>
      </trkpt>
      <trkpt lat="51.210684463405" lon="4.40707058598">
        <ele>63.8</ele>
        <time>2019-05-19T10:26:42Z</time>
      </trkpt>
      <trkpt lat="51.210751350967" lon="4.407688667286">
        <ele>66.8</ele>
        <time>2019-05-19T10:27:16Z</time>
      </trkpt>
      <trkpt lat="51.21123138238" lon="4.40751985582">
        <ele>65</ele>
        <time>2019-05-19T10:27:35Z</time>
      </trkpt>
      <trkpt lat="51.211704708273" lon="4.407393875863">
        <ele>59.4</ele>
        <time>2019-05-19T10:27:51Z</time>
      </trkpt>
      <trkpt lat="51.211903359303" lon="4.40730863194">
        <ele>65.6</ele>
        <time>2019-05-19T10:27:56Z</time>
      </trkpt>
      <trkpt lat="51.212276521491" lon="4.407155494627">
        <ele>77</ele>
        <time>2019-05-19T10:28:20Z</time>
      </trkpt>
      <trkpt lat="51.212471316847" lon="4.407295053262">
        <ele>59</ele>
        <time>2019-05-19T10:28:29Z</time>
      </trkpt>
      <trkpt lat="51.212541389531" lon="4.407322545894">
        <ele>52</ele>
        <time>2019-05-19T10:28:34Z</time>
      </trkpt>
      <trkpt lat="51.212599140822" lon="4.407377698796">
        <ele>45.2</ele>
        <time>2019-05-19T10:28:37Z</time>
      </trkpt>
      <trkpt lat="51.212757391094" lon="4.407369735991">
        <ele>40.4</ele>
        <time>2019-05-19T10:28:45Z</time>
      </trkpt>
      <trkpt lat="51.213062324616" lon="4.407256580341">
        <ele>49.8</ele>
        <time>2019-05-19T10:29:03Z</time>
      </trkpt>
      <trkpt lat="51.213265753329" lon="4.407120793561">
        <ele>63.6</ele>
        <time>2019-05-19T10:29:14Z</time>
      </trkpt>
      <trkpt lat="51.213301544042" lon="4.407096402232">
        <ele>66</ele>
        <time>2019-05-19T10:29:16Z</time>
      </trkpt>
      <trkpt lat="51.213513606112" lon="4.406953742294">
        <ele>83.4</ele>
        <time>2019-05-19T10:29:27Z</time>
      </trkpt>
      <trkpt lat="51.213725500544" lon="4.406877215547">
        <ele>93.2</ele>
        <time>2019-05-19T10:29:35Z</time>
      </trkpt>
      <trkpt lat="51.213789119165" lon="4.406814435116">
        <ele>97</ele>
        <time>2019-05-19T10:29:41Z</time>
      </trkpt>
      <trkpt lat="51.214120874767" lon="4.40676883758">
        <ele>80.6</ele>
        <time>2019-05-19T10:29:55Z</time>
      </trkpt>
      <trkpt lat="51.214168567778" lon="4.406810830899">
        <ele>75.6</ele>
        <time>2019-05-19T10:29:58Z</time>
      </trkpt>
      <trkpt lat="51.214182062637" lon="4.407312319976">
        <ele>54.8</ele>
        <time>2019-05-19T10:30:15Z</time>
      </trkpt>
      <trkpt lat="51.21409463942" lon="4.407617421136">
        <ele>42.4</ele>
        <time>2019-05-19T10:30:26Z</time>
      </trkpt>
      <trkpt lat="51.214215506418" lon="4.408222342859">
        <ele>26.2</ele>
        <time>2019-05-19T10:30:46Z</time>
      </trkpt>
      <trkpt lat="51.214220619377" lon="4.40826249216">
        <ele>26</ele>
        <time>2019-05-19T10:30:48Z</time>
      </trkpt>
      <trkpt lat="51.214197820609" lon="4.408469944185">
        <ele>28.8</ele>
        <time>2019-05-19T10:30:55Z</time>
      </trkpt>
      <trkpt lat="51.214360597107" lon="4.408914855437">
        <ele>36.8</ele>
        <time>2019-05-19T10:31:25Z</time>
      </trkpt>
      <trkpt lat="51.214434190189" lon="4.40896238081">
        <ele>37.6</ele>
        <time>2019-05-19T10:31:27Z</time>
      </trkpt>
      <trkpt lat="51.214517422456" lon="4.409042930869">
        <ele>36</ele>
        <time>2019-05-19T10:31:32Z</time>
      </trkpt>
      <trkpt lat="51.214565115467" lon="4.409083750722">
        <ele>34.2</ele>
        <time>2019-05-19T10:31:38Z</time>
      </trkpt>
      <trkpt lat="51.214599732714" lon="4.409119289978">
        <ele>36.2</ele>
        <time>2019-05-19T10:31:46Z</time>
      </trkpt>
      <trkpt lat="51.214597050506" lon="4.409153320492">
        <ele>32.8</ele>
        <time>2019-05-19T10:31:56Z</time>
      </trkpt>
      <trkpt lat="51.214468555979" lon="4.409269074531">
        <ele>38.2</ele>
        <time>2019-05-19T10:33:37Z</time>
      </trkpt>
      <trkpt lat="51.21454558564" lon="4.409303607959">
        <ele>17.6</ele>
        <time>2019-05-19T10:33:55Z</time>
      </trkpt>
      <trkpt lat="51.214537287559" lon="4.409326909641">
        <ele>5.8</ele>
        <time>2019-05-19T10:34:25Z</time>
      </trkpt>
      <trkpt lat="51.214548603124" lon="4.409510640889">
        <ele>5</ele>
        <time>2019-05-19T10:34:43Z</time>
      </trkpt>
      <trkpt lat="51.214472746929" lon="4.409469653398">
        <ele>13</ele>
        <time>2019-05-19T10:35:43Z</time>
      </trkpt>
      <trkpt lat="51.214648012458" lon="4.409756649654">
        <ele>24</ele>
        <time>2019-05-19T10:36:32Z</time>
      </trkpt>
      <trkpt lat="51.214640720205" lon="4.409895873013">
        <ele>26.6</ele>
        <time>2019-05-19T10:36:42Z</time>
      </trkpt>
      <trkpt lat="51.214457491871" lon="4.409915151383">
        <ele>15.6</ele>
        <time>2019-05-19T10:37:40Z</time>
      </trkpt>
      <trkpt lat="51.214467801608" lon="4.409666963324">
        <ele>17.2</ele>
        <time>2019-05-19T10:37:55Z</time>
      </trkpt>
      <trkpt lat="51.214504262873" lon="4.409396227954">
        <ele>28</ele>
        <time>2019-05-19T10:38:10Z</time>
      </trkpt>
      <trkpt lat="51.214577017765" lon="4.40927586387">
        <ele>31</ele>
        <time>2019-05-19T10:38:24Z</time>
      </trkpt>
      <trkpt lat="51.214531923143" lon="4.409672663016">
        <ele>27.8</ele>
        <time>2019-05-19T10:39:16Z</time>
      </trkpt>
      <trkpt lat="51.214580538163" lon="4.409336129731">
        <ele>17.8</ele>
        <time>2019-05-19T10:41:25Z</time>
      </trkpt>
      <trkpt lat="51.214606689691" lon="4.409482812981">
        <ele>22.4</ele>
        <time>2019-05-19T10:41:52Z</time>
      </trkpt>
      <trkpt lat="51.214496886801" lon="4.409696048517">
        <ele>20.2</ele>
        <time>2019-05-19T10:42:18Z</time>
      </trkpt>
      <trkpt lat="51.214504430511" lon="4.409419529636">
        <ele>17.2</ele>
        <time>2019-05-19T10:42:41Z</time>
      </trkpt>
      <trkpt lat="51.214601157637" lon="4.409820519732">
        <ele>14.8</ele>
        <time>2019-05-19T10:43:52Z</time>
      </trkpt>
      <trkpt lat="51.214601492913" lon="4.409804258846">
        <ele>14.8</ele>
        <time>2019-05-19T10:43:53Z</time>
      </trkpt>
      <trkpt lat="51.214605013311" lon="4.409598483201">
        <ele>14.2</ele>
        <time>2019-05-19T10:44:06Z</time>
      </trkpt>
      <trkpt lat="51.214496300068" lon="4.409553807674">
        <ele>13.4</ele>
        <time>2019-05-19T10:44:22Z</time>
      </trkpt>
      <trkpt lat="51.214383563513" lon="4.40962622729">
        <ele>13.8</ele>
        <time>2019-05-19T10:44:41Z</time>
      </trkpt>
      <trkpt lat="51.214443242641" lon="4.40970501715">
        <ele>11.8</ele>
        <time>2019-05-19T10:44:53Z</time>
      </trkpt>
      <trkpt lat="51.214523122148" lon="4.40931274423">
        <ele>11.2</ele>
        <time>2019-05-19T10:45:47Z</time>
      </trkpt>
      <trkpt lat="51.21471406183" lon="4.409247700686">
        <ele>16.4</ele>
        <time>2019-05-19T10:53:47Z</time>
      </trkpt>
      <trkpt lat="51.214661507317" lon="4.40936471201">
        <ele>16.6</ele>
        <time>2019-05-19T10:53:50Z</time>
      </trkpt>
      <trkpt lat="51.214658154557" lon="4.409431851029">
        <ele>16.6</ele>
        <time>2019-05-19T10:53:52Z</time>
      </trkpt>
      <trkpt lat="51.214589506796" lon="4.410137607009">
        <ele>15.8</ele>
        <time>2019-05-19T10:54:27Z</time>
      </trkpt>
      <trkpt lat="51.214590428805" lon="4.41028420644">
        <ele>15.8</ele>
        <time>2019-05-19T10:54:36Z</time>
      </trkpt>
      <trkpt lat="51.214759156452" lon="4.410285631363">
        <ele>13.8</ele>
        <time>2019-05-19T10:55:09Z</time>
      </trkpt>
      <trkpt lat="51.214744320489" lon="4.410293761806">
        <ele>15.8</ele>
        <time>2019-05-19T10:59:29Z</time>
      </trkpt>
      <trkpt lat="51.214724371567" lon="4.410259228378">
        <ele>16.2</ele>
        <time>2019-05-19T10:59:32Z</time>
      </trkpt>
      <trkpt lat="51.214681707696" lon="4.410230059366">
        <ele>16.6</ele>
        <time>2019-05-19T10:59:37Z</time>
      </trkpt>
      <trkpt lat="51.214674415443" lon="4.41018530002">
        <ele>16.8</ele>
        <time>2019-05-19T10:59:40Z</time>
      </trkpt>
      <trkpt lat="51.214723365739" lon="4.409919929066">
        <ele>16</ele>
        <time>2019-05-19T11:00:16Z</time>
      </trkpt>
      <trkpt lat="51.214742392652" lon="4.409528242879">
        <ele>16.2</ele>
        <time>2019-05-19T11:00:35Z</time>
      </trkpt>
      <trkpt lat="51.214668967208" lon="4.409294136412">
        <ele>12.8</ele>
        <time>2019-05-19T11:00:58Z</time>
      </trkpt>
      <trkpt lat="51.214411391421" lon="4.409379380335">
        <ele>15.6</ele>
        <time>2019-05-19T11:01:26Z</time>
      </trkpt>
      <trkpt lat="51.214420862968" lon="4.409378542145">
        <ele>16</ele>
        <time>2019-05-19T11:01:52Z</time>
      </trkpt>
      <trkpt lat="51.21441901895" lon="4.409378290688">
        <ele>16</ele>
        <time>2019-05-19T11:01:54Z</time>
      </trkpt>
      <trkpt lat="51.214318603788" lon="4.409476694194">
        <ele>23</ele>
        <time>2019-05-19T11:12:10Z</time>
      </trkpt>
      <trkpt lat="51.214170830891" lon="4.409387007864">
        <ele>23.4</ele>
        <time>2019-05-19T11:12:30Z</time>
      </trkpt>
      <trkpt lat="51.214048455151" lon="4.409035722435">
        <ele>22.6</ele>
        <time>2019-05-19T11:13:05Z</time>
      </trkpt>
      <trkpt lat="51.214044683296" lon="4.408999344989">
        <ele>22.6</ele>
        <time>2019-05-19T11:13:07Z</time>
      </trkpt>
      <trkpt lat="51.214002857615" lon="4.408274897372">
        <ele>23.2</ele>
        <time>2019-05-19T11:13:38Z</time>
      </trkpt>
      <trkpt lat="51.213968743282" lon="4.407552796687">
        <ele>25</ele>
        <time>2019-05-19T11:14:12Z</time>
      </trkpt>
      <trkpt lat="51.21382390405" lon="4.407323132627">
        <ele>23.8</ele>
        <time>2019-05-19T11:14:39Z</time>
      </trkpt>
      <trkpt lat="51.213768248234" lon="4.407309218673">
        <ele>23.4</ele>
        <time>2019-05-19T11:14:41Z</time>
      </trkpt>
      <trkpt lat="51.213290899029" lon="4.40730276461">
        <ele>25.4</ele>
        <time>2019-05-19T11:15:09Z</time>
      </trkpt>
      <trkpt lat="51.213029132292" lon="4.407382811755">
        <ele>26.8</ele>
        <time>2019-05-19T11:15:33Z</time>
      </trkpt>
      <trkpt lat="51.21257332457" lon="4.407435114811">
        <ele>31.6</ele>
        <time>2019-05-19T11:16:08Z</time>
      </trkpt>
      <trkpt lat="51.212193037767" lon="4.407526309883">
        <ele>32</ele>
        <time>2019-05-19T11:16:33Z</time>
      </trkpt>
      <trkpt lat="51.212050377829" lon="4.407598980956">
        <ele>32.2</ele>
        <time>2019-05-19T11:16:45Z</time>
      </trkpt>
      <trkpt lat="51.211698840943" lon="4.407689337838">
        <ele>30.4</ele>
        <time>2019-05-19T11:17:07Z</time>
      </trkpt>
      <trkpt lat="51.211413353429" lon="4.40778891481">
        <ele>32.8</ele>
        <time>2019-05-19T11:17:25Z</time>
      </trkpt>
      <trkpt lat="51.211021583423" lon="4.407755554848">
        <ele>33</ele>
        <time>2019-05-19T11:18:02Z</time>
      </trkpt>
      <trkpt lat="51.210900464968" lon="4.407718339212">
        <ele>27</ele>
        <time>2019-05-19T11:18:14Z</time>
      </trkpt>
      <trkpt lat="51.210905242651" lon="4.407673998961">
        <ele>25.6</ele>
        <time>2019-05-19T11:18:28Z</time>
      </trkpt>
      <trkpt lat="51.210871295956" lon="4.407695708082">
        <ele>24.8</ele>
        <time>2019-05-19T11:18:32Z</time>
      </trkpt>
      <trkpt lat="51.210660994085" lon="4.407664108319">
        <ele>21.8</ele>
        <time>2019-05-19T11:18:51Z</time>
      </trkpt>
      <trkpt lat="51.210489835687" lon="4.407432851698">
        <ele>19.6</ele>
        <time>2019-05-19T11:19:05Z</time>
      </trkpt>
      <trkpt lat="51.21048958423" lon="4.40737568714">
        <ele>19.6</ele>
        <time>2019-05-19T11:19:08Z</time>
      </trkpt>
      <trkpt lat="51.21025153827" lon="4.406792642176">
        <ele>29.8</ele>
        <time>2019-05-19T11:19:39Z</time>
      </trkpt>
      <trkpt lat="51.210092114532" lon="4.40646625099">
        <ele>30</ele>
        <time>2019-05-19T11:19:56Z</time>
      </trkpt>
      <trkpt lat="51.209861277006" lon="4.405884882406">
        <ele>30.8</ele>
        <time>2019-05-19T11:20:24Z</time>
      </trkpt>
      <trkpt lat="51.209570173619" lon="4.405324384753">
        <ele>24.4</ele>
        <time>2019-05-19T11:20:54Z</time>
      </trkpt>
      <trkpt lat="51.20943765578" lon="4.40486866085">
        <ele>24.2</ele>
        <time>2019-05-19T11:21:15Z</time>
      </trkpt>
      <trkpt lat="51.209407061845" lon="4.404813507948">
        <ele>22</ele>
        <time>2019-05-19T11:21:19Z</time>
      </trkpt>
      <trkpt lat="51.209307987787" lon="4.404782997832">
        <ele>21</ele>
        <time>2019-05-19T11:21:28Z</time>
      </trkpt>
      <trkpt lat="51.20907388132" lon="4.404857932018">
        <ele>22.6</ele>
        <time>2019-05-19T11:21:45Z</time>
      </trkpt>
      <trkpt lat="51.208987380112" lon="4.404871845972">
        <ele>25.2</ele>
        <time>2019-05-19T11:21:52Z</time>
      </trkpt>
      <trkpt lat="51.208839523396" lon="4.404999167033">
        <ele>27.2</ele>
        <time>2019-05-19T11:22:02Z</time>
      </trkpt>
      <trkpt lat="51.208743299184" lon="4.404912498187">
        <ele>24.2</ele>
        <time>2019-05-19T11:22:10Z</time>
      </trkpt>
      <trkpt lat="51.208575577365" lon="4.404568421192">
        <ele>13.8</ele>
        <time>2019-05-19T11:22:31Z</time>
      </trkpt>
      <trkpt lat="51.208466864122" lon="4.404332722164">
        <ele>9.6</ele>
        <time>2019-05-19T11:22:42Z</time>
      </trkpt>
      <trkpt lat="51.208453201625" lon="4.404331632517">
        <ele>14.4</ele>
        <time>2019-05-19T11:22:50Z</time>
      </trkpt>
      <trkpt lat="51.208373489756" lon="4.404381001908">
        <ele>19</ele>
        <time>2019-05-19T11:23:02Z</time>
      </trkpt>
    </trkseg>
  </trk>
</gpx>